sensor_id;sensor_type;location;lat;lon;timestamp;temperature;humidity
12130;DHT22;6128;59.340;18.040;2024-01-15T00:01:14;-3.30;99.90
12130;DHT22;6128;59.340;18.040;2024-01-15T00:03:42;-3.40;99.90
12130;DHT22;6128;59.340;18.040;2024-01-15T00:06:09;-3.40;99.90
12130;DHT22;6128;59.340;18.040;2024-01-15T00:08:36;-3.30;99.90
12130;DHT22;6128;59.340;18.040;2024-01-15T00:11:03;-3.30;99.90
12130;DHT22;6128;59.340;18.040;2024-01-15T00:13:30;-3.30;99.90
12130;DHT22;6128;59.340;18.040;2024-01-15T00:15:58;-3.30;99.90
12130;DHT22;6128;59.340;18.040;2024-01-15T00:18:24;-3.40;99.90
12130;DHT22;6128;59.340;18.040;2024-01-15T00:20:51;-3.30;99.90
12130;DHT22;6128;59.340;18.040;2024-01-15T00:23:18;-3.40;99.90
12130;DHT22;6128;59.340;18.040;2024-01-15T00:25:45;-3.40;99.90
12130;DHT22;6128;59.340;18.040;2024-01-15T00:28:12;-3.40;99.90
12130;DHT22;6128;59.340;18.040;2024-01-15T00:30:39;-3.40;99.90
12130;DHT22;6128;59.340;18.040;2024-01-15T00:33:08;-3.50;99.90
12130;DHT22;6128;59.340;18.040;2024-01-15T00:35:38;-3.50;99.90
12130;DHT22;6128;59.340;18.040;2024-01-15T00:38:05;-3.50;99.90
12130;DHT22;6128;59.340;18.040;2024-01-15T00:40:32;-3.50;99.90
12130;DHT22;6128;59.340;18.040;2024-01-15T00:42:59;-3.50;99.90
12130;DHT22;6128;59.340;18.040;2024-01-15T00:45:26;-3.50;99.90
12130;DHT22;6128;59.340;18.040;2024-01-15T00:47:53;-3.50;99.90
12130;DHT22;6128;59.340;18.040;2024-01-15T00:50:23;-3.60;99.90
12130;DHT22;6128;59.340;18.040;2024-01-15T00:52:50;-3.60;99.90
12130;DHT22;6128;59.340;18.040;2024-01-15T00:55:17;-3.50;99.90
12130;DHT22;6128;59.340;18.040;2024-01-15T00:57:44;-3.50;99.90
12130;DHT22;6128;59.340;18.040;2024-01-15T01:00:12;-3.40;99.90
12130;DHT22;6128;59.340;18.040;2024-01-15T01:02:40;-3.40;99.90
12130;DHT22;6128;59.340;18.040;2024-01-15T01:05:07;-3.40;99.90
12130;DHT22;6128;59.340;18.040;2024-01-15T01:07:36;-3.40;99.90
12130;DHT22;6128;59.340;18.040;2024-01-15T01:10:03;-3.50;99.90
12130;DHT22;6128;59.340;18.040;2024-01-15T01:12:30;-3.50;99.90
12130;DHT22;6128;59.340;18.040;2024-01-15T01:14:57;-3.50;99.90
12130;DHT22;6128;59.340;18.040;2024-01-15T01:17:25;-3.60;99.90
12130;DHT22;6128;59.340;18.040;2024-01-15T01:19:52;-3.70;99.90
12130;DHT22;6128;59.340;18.040;2024-01-15T01:22:19;-3.70;99.90
12130;DHT22;6128;59.340;18.040;2024-01-15T01:24:48;-3.70;99.90
12130;DHT22;6128;59.340;18.040;2024-01-15T01:27:15;-3.70;99.90
12130;DHT22;6128;59.340;18.040;2024-01-15T01:29:42;-3.70;99.90
12130;DHT22;6128;59.340;18.040;2024-01-15T01:32:09;-3.70;99.90
12130;DHT22;6128;59.340;18.040;2024-01-15T01:34:40;-3.70;99.90
12130;DHT22;6128;59.340;18.040;2024-01-15T01:37:08;-3.80;99.90
12130;DHT22;6128;59.340;18.040;2024-01-15T01:39:35;-3.70;99.90
12130;DHT22;6128;59.340;18.040;2024-01-15T01:42:04;-3.80;99.90
12130;DHT22;6128;59.340;18.040;2024-01-15T01:44:32;-3.80;99.90
12130;DHT22;6128;59.340;18.040;2024-01-15T01:47:00;-3.80;99.90
12130;DHT22;6128;59.340;18.040;2024-01-15T01:49:27;-3.90;99.90
12130;DHT22;6128;59.340;18.040;2024-01-15T01:51:57;-3.90;99.90
12130;DHT22;6128;59.340;18.040;2024-01-15T01:54:24;-3.90;99.90
12130;DHT22;6128;59.340;18.040;2024-01-15T01:56:52;-3.90;99.90
12130;DHT22;6128;59.340;18.040;2024-01-15T01:59:22;-3.90;99.90
12130;DHT22;6128;59.340;18.040;2024-01-15T02:01:50;-3.90;99.90
12130;DHT22;6128;59.340;18.040;2024-01-15T02:04:17;-3.90;99.90
12130;DHT22;6128;59.340;18.040;2024-01-15T02:06:44;-3.90;99.90
12130;DHT22;6128;59.340;18.040;2024-01-15T02:09:12;-4.00;99.90
12130;DHT22;6128;59.340;18.040;2024-01-15T02:11:40;-4.00;99.90
12130;DHT22;6128;59.340;18.040;2024-01-15T02:14:09;-4.00;99.90
12130;DHT22;6128;59.340;18.040;2024-01-15T02:16:37;-3.90;99.90
12130;DHT22;6128;59.340;18.040;2024-01-15T02:19:04;-3.90;99.90
12130;DHT22;6128;59.340;18.040;2024-01-15T02:21:32;-4.00;99.90
12130;DHT22;6128;59.340;18.040;2024-01-15T02:24:00;-4.00;99.90
12130;DHT22;6128;59.340;18.040;2024-01-15T02:26:27;-4.00;99.90
12130;DHT22;6128;59.340;18.040;2024-01-15T02:28:55;-4.00;99.90
12130;DHT22;6128;59.340;18.040;2024-01-15T02:31:22;-4.00;99.90
12130;DHT22;6128;59.340;18.040;2024-01-15T02:33:49;-4.00;99.90
12130;DHT22;6128;59.340;18.040;2024-01-15T02:36:17;-4.00;99.90
12130;DHT22;6128;59.340;18.040;2024-01-15T02:38:44;-4.10;99.90
12130;DHT22;6128;59.340;18.040;2024-01-15T02:41:12;-4.10;99.90
12130;DHT22;6128;59.340;18.040;2024-01-15T02:43:40;-4.10;99.90
12130;DHT22;6128;59.340;18.040;2024-01-15T02:46:07;-4.10;99.90
12130;DHT22;6128;59.340;18.040;2024-01-15T02:48:34;-4.10;99.90
12130;DHT22;6128;59.340;18.040;2024-01-15T02:51:01;-4.00;99.90
12130;DHT22;6128;59.340;18.040;2024-01-15T02:53:29;-4.00;99.90
12130;DHT22;6128;59.340;18.040;2024-01-15T02:55:56;-4.00;99.90
12130;DHT22;6128;59.340;18.040;2024-01-15T02:58:24;-4.00;99.90
12130;DHT22;6128;59.340;18.040;2024-01-15T03:00:51;-4.10;99.90
12130;DHT22;6128;59.340;18.040;2024-01-15T03:03:18;-4.00;99.90
12130;DHT22;6128;59.340;18.040;2024-01-15T03:05:45;-4.00;99.90
12130;DHT22;6128;59.340;18.040;2024-01-15T03:08:12;-4.00;99.90
12130;DHT22;6128;59.340;18.040;2024-01-15T03:10:40;-4.10;99.90
12130;DHT22;6128;59.340;18.040;2024-01-15T03:13:07;-4.10;99.90
12130;DHT22;6128;59.340;18.040;2024-01-15T03:15:35;-4.10;99.90
12130;DHT22;6128;59.340;18.040;2024-01-15T03:18:02;-4.10;99.90
12130;DHT22;6128;59.340;18.040;2024-01-15T03:20:30;-4.20;99.90
12130;DHT22;6128;59.340;18.040;2024-01-15T03:22:57;-4.20;99.90
12130;DHT22;6128;59.340;18.040;2024-01-15T03:25:24;-4.20;99.90
12130;DHT22;6128;59.340;18.040;2024-01-15T03:27:51;-4.20;99.90
12130;DHT22;6128;59.340;18.040;2024-01-15T03:30:18;-4.20;99.90
12130;DHT22;6128;59.340;18.040;2024-01-15T03:32:47;-4.20;99.90
12130;DHT22;6128;59.340;18.040;2024-01-15T03:35:15;-4.30;99.90
12130;DHT22;6128;59.340;18.040;2024-01-15T03:37:42;-4.30;99.90
12130;DHT22;6128;59.340;18.040;2024-01-15T03:40:10;-4.20;99.90
12130;DHT22;6128;59.340;18.040;2024-01-15T03:42:38;-4.20;99.90
12130;DHT22;6128;59.340;18.040;2024-01-15T03:45:05;-4.30;99.90
12130;DHT22;6128;59.340;18.040;2024-01-15T03:47:33;-4.30;99.90
12130;DHT22;6128;59.340;18.040;2024-01-15T03:50:01;-4.30;99.90
12130;DHT22;6128;59.340;18.040;2024-01-15T03:52:28;-4.30;99.90
12130;DHT22;6128;59.340;18.040;2024-01-15T03:54:55;-4.40;99.90
12130;DHT22;6128;59.340;18.040;2024-01-15T03:57:22;-4.40;99.90
12130;DHT22;6128;59.340;18.040;2024-01-15T03:59:49;-4.40;99.90
12130;DHT22;6128;59.340;18.040;2024-01-15T04:02:16;-4.40;99.90
12130;DHT22;6128;59.340;18.040;2024-01-15T04:04:43;-4.40;99.90
12130;DHT22;6128;59.340;18.040;2024-01-15T04:07:12;-4.40;99.90
12130;DHT22;6128;59.340;18.040;2024-01-15T04:09:39;-4.40;99.90
12130;DHT22;6128;59.340;18.040;2024-01-15T04:12:06;-4.40;99.90
12130;DHT22;6128;59.340;18.040;2024-01-15T04:14:33;-4.40;99.90
12130;DHT22;6128;59.340;18.040;2024-01-15T04:17:01;-4.40;99.90
12130;DHT22;6128;59.340;18.040;2024-01-15T04:19:28;-4.40;99.90
12130;DHT22;6128;59.340;18.040;2024-01-15T04:21:55;-4.40;99.90
12130;DHT22;6128;59.340;18.040;2024-01-15T04:24:23;-4.40;99.90
12130;DHT22;6128;59.340;18.040;2024-01-15T04:26:51;-4.40;99.90
12130;DHT22;6128;59.340;18.040;2024-01-15T04:29:18;-4.40;99.90
12130;DHT22;6128;59.340;18.040;2024-01-15T04:31:45;-4.50;99.90
12130;DHT22;6128;59.340;18.040;2024-01-15T04:34:12;-4.50;99.90
12130;DHT22;6128;59.340;18.040;2024-01-15T04:36:39;-4.60;99.90
12130;DHT22;6128;59.340;18.040;2024-01-15T04:39:07;-4.60;99.90
12130;DHT22;6128;59.340;18.040;2024-01-15T04:41:38;-4.60;99.90
12130;DHT22;6128;59.340;18.040;2024-01-15T04:44:05;-4.60;99.90
12130;DHT22;6128;59.340;18.040;2024-01-15T04:46:32;-4.60;99.90
12130;DHT22;6128;59.340;18.040;2024-01-15T04:48:59;-4.70;99.90
12130;DHT22;6128;59.340;18.040;2024-01-15T04:51:26;-4.70;99.90
12130;DHT22;6128;59.340;18.040;2024-01-15T04:53:53;-4.70;99.90
12130;DHT22;6128;59.340;18.040;2024-01-15T04:56:20;-4.70;99.90
12130;DHT22;6128;59.340;18.040;2024-01-15T04:58:49;-4.70;99.90
12130;DHT22;6128;59.340;18.040;2024-01-15T05:01:16;-4.70;99.90
12130;DHT22;6128;59.340;18.040;2024-01-15T05:03:43;-4.70;99.90
12130;DHT22;6128;59.340;18.040;2024-01-15T05:06:10;-4.60;99.90
12130;DHT22;6128;59.340;18.040;2024-01-15T05:08:37;-4.60;99.90
12130;DHT22;6128;59.340;18.040;2024-01-15T05:11:04;-4.60;99.90
12130;DHT22;6128;59.340;18.040;2024-01-15T05:13:31;-4.50;99.90
12130;DHT22;6128;59.340;18.040;2024-01-15T05:16:00;-4.50;99.90
12130;DHT22;6128;59.340;18.040;2024-01-15T05:18:27;-4.50;99.90
12130;DHT22;6128;59.340;18.040;2024-01-15T05:20:54;-4.50;99.90
12130;DHT22;6128;59.340;18.040;2024-01-15T05:23:21;-4.50;99.90
12130;DHT22;6128;59.340;18.040;2024-01-15T05:25:48;-4.50;99.90
12130;DHT22;6128;59.340;18.040;2024-01-15T05:28:16;-4.60;99.90
12130;DHT22;6128;59.340;18.040;2024-01-15T05:30:43;-4.60;99.90
12130;DHT22;6128;59.340;18.040;2024-01-15T05:33:11;-4.50;99.90
12130;DHT22;6128;59.340;18.040;2024-01-15T05:35:54;-4.60;99.90
12130;DHT22;6128;59.340;18.040;2024-01-15T05:38:21;-4.60;99.90
12130;DHT22;6128;59.340;18.040;2024-01-15T05:40:48;-4.60;99.90
12130;DHT22;6128;59.340;18.040;2024-01-15T05:43:30;-4.60;99.90
12130;DHT22;6128;59.340;18.040;2024-01-15T05:46:11;-4.60;99.90
12130;DHT22;6128;59.340;18.040;2024-01-15T05:48:40;-4.60;99.90
12130;DHT22;6128;59.340;18.040;2024-01-15T05:51:07;-4.60;99.90
12130;DHT22;6128;59.340;18.040;2024-01-15T05:53:34;-4.60;99.90
12130;DHT22;6128;59.340;18.040;2024-01-15T05:56:01;-4.60;99.90
12130;DHT22;6128;59.340;18.040;2024-01-15T05:58:28;-4.70;99.90
12130;DHT22;6128;59.340;18.040;2024-01-15T06:00:55;-4.70;99.90
12130;DHT22;6128;59.340;18.040;2024-01-15T06:03:22;-4.70;99.90
12130;DHT22;6128;59.340;18.040;2024-01-15T06:05:51;-4.70;99.90
12130;DHT22;6128;59.340;18.040;2024-01-15T06:08:18;-4.70;99.90
12130;DHT22;6128;59.340;18.040;2024-01-15T06:10:46;-4.70;99.90
12130;DHT22;6128;59.340;18.040;2024-01-15T06:13:13;-4.70;99.90
12130;DHT22;6128;59.340;18.040;2024-01-15T06:15:40;-4.70;99.90
12130;DHT22;6128;59.340;18.040;2024-01-15T06:18:07;-4.70;99.90
12130;DHT22;6128;59.340;18.040;2024-01-15T06:20:35;-4.70;99.90
12130;DHT22;6128;59.340;18.040;2024-01-15T06:23:04;-4.70;99.90
12130;DHT22;6128;59.340;18.040;2024-01-15T06:25:31;-4.70;99.90
12130;DHT22;6128;59.340;18.040;2024-01-15T06:27:58;-4.80;99.90
12130;DHT22;6128;59.340;18.040;2024-01-15T06:30:25;-4.80;99.90
12130;DHT22;6128;59.340;18.040;2024-01-15T06:32:52;-4.70;99.90
12130;DHT22;6128;59.340;18.040;2024-01-15T06:35:20;-4.80;99.90
12130;DHT22;6128;59.340;18.040;2024-01-15T06:37:47;-4.70;99.90
12130;DHT22;6128;59.340;18.040;2024-01-15T06:40:15;-4.70;99.90
12130;DHT22;6128;59.340;18.040;2024-01-15T06:42:42;-4.80;99.90
12130;DHT22;6128;59.340;18.040;2024-01-15T06:45:09;-4.80;99.90
12130;DHT22;6128;59.340;18.040;2024-01-15T06:47:36;-4.80;99.90
12130;DHT22;6128;59.340;18.040;2024-01-15T06:50:04;-4.80;99.90
12130;DHT22;6128;59.340;18.040;2024-01-15T06:52:32;-4.80;99.90
12130;DHT22;6128;59.340;18.040;2024-01-15T06:54:59;-4.80;99.90
12130;DHT22;6128;59.340;18.040;2024-01-15T06:57:28;-4.90;99.90
12130;DHT22;6128;59.340;18.040;2024-01-15T06:59:55;-4.80;99.90
12130;DHT22;6128;59.340;18.040;2024-01-15T07:02:22;-4.90;99.90
12130;DHT22;6128;59.340;18.040;2024-01-15T07:04:49;-4.90;99.90
12130;DHT22;6128;59.340;18.040;2024-01-15T07:07:16;-4.80;99.90
12130;DHT22;6128;59.340;18.040;2024-01-15T07:09:43;-4.80;99.90
12130;DHT22;6128;59.340;18.040;2024-01-15T07:12:10;-4.80;99.90
12130;DHT22;6128;59.340;18.040;2024-01-15T07:14:39;-4.80;99.90
12130;DHT22;6128;59.340;18.040;2024-01-15T07:17:06;-4.90;99.90
12130;DHT22;6128;59.340;18.040;2024-01-15T07:19:33;-4.90;99.90
12130;DHT22;6128;59.340;18.040;2024-01-15T07:22:00;-4.90;99.90
12130;DHT22;6128;59.340;18.040;2024-01-15T07:24:27;-4.90;99.90
12130;DHT22;6128;59.340;18.040;2024-01-15T07:26:54;-4.90;99.90
12130;DHT22;6128;59.340;18.040;2024-01-15T07:29:21;-4.90;99.90
12130;DHT22;6128;59.340;18.040;2024-01-15T07:31:51;-4.90;99.90
12130;DHT22;6128;59.340;18.040;2024-01-15T07:34:18;-4.90;99.90
12130;DHT22;6128;59.340;18.040;2024-01-15T07:36:45;-4.90;99.90
12130;DHT22;6128;59.340;18.040;2024-01-15T07:39:12;-5.00;99.90
12130;DHT22;6128;59.340;18.040;2024-01-15T07:41:40;-5.00;99.90
12130;DHT22;6128;59.340;18.040;2024-01-15T07:44:07;-5.00;99.90
12130;DHT22;6128;59.340;18.040;2024-01-15T07:46:34;-4.90;99.90
12130;DHT22;6128;59.340;18.040;2024-01-15T07:49:03;-4.90;99.90
12130;DHT22;6128;59.340;18.040;2024-01-15T07:51:31;-4.90;99.90
12130;DHT22;6128;59.340;18.040;2024-01-15T07:53:58;-4.90;99.90
12130;DHT22;6128;59.340;18.040;2024-01-15T07:56:25;-4.90;99.90
12130;DHT22;6128;59.340;18.040;2024-01-15T07:58:53;-4.90;99.90
12130;DHT22;6128;59.340;18.040;2024-01-15T08:01:20;-4.90;99.90
12130;DHT22;6128;59.340;18.040;2024-01-15T08:03:47;-4.90;99.90
12130;DHT22;6128;59.340;18.040;2024-01-15T08:06:15;-4.90;99.90
12130;DHT22;6128;59.340;18.040;2024-01-15T08:08:43;-4.90;99.90
12130;DHT22;6128;59.340;18.040;2024-01-15T08:11:10;-4.90;99.90
12130;DHT22;6128;59.340;18.040;2024-01-15T08:13:37;-5.00;99.90
12130;DHT22;6128;59.340;18.040;2024-01-15T08:16:05;-4.90;99.90
12130;DHT22;6128;59.340;18.040;2024-01-15T08:18:32;-4.90;99.90
12130;DHT22;6128;59.340;18.040;2024-01-15T08:20:59;-4.90;99.90
12130;DHT22;6128;59.340;18.040;2024-01-15T08:23:28;-4.90;99.90
12130;DHT22;6128;59.340;18.040;2024-01-15T08:25:56;-4.90;99.90
12130;DHT22;6128;59.340;18.040;2024-01-15T08:28:24;-4.90;99.90
12130;DHT22;6128;59.340;18.040;2024-01-15T08:30:51;-4.90;99.90
12130;DHT22;6128;59.340;18.040;2024-01-15T08:33:18;-4.90;99.90
12130;DHT22;6128;59.340;18.040;2024-01-15T08:35:45;-4.90;99.90
12130;DHT22;6128;59.340;18.040;2024-01-15T08:38:12;-4.90;99.90
12130;DHT22;6128;59.340;18.040;2024-01-15T08:40:41;-4.90;99.90
12130;DHT22;6128;59.340;18.040;2024-01-15T08:43:08;-4.90;99.90
12130;DHT22;6128;59.340;18.040;2024-01-15T08:45:35;-4.80;99.90
12130;DHT22;6128;59.340;18.040;2024-01-15T08:48:02;-4.90;99.90
12130;DHT22;6128;59.340;18.040;2024-01-15T08:50:30;-4.90;99.90
12130;DHT22;6128;59.340;18.040;2024-01-15T08:52:58;-4.90;99.90
12130;DHT22;6128;59.340;18.040;2024-01-15T08:55:25;-4.90;99.90
12130;DHT22;6128;59.340;18.040;2024-01-15T08:57:53;-4.90;99.90
12130;DHT22;6128;59.340;18.040;2024-01-15T09:00:20;-4.90;99.90
12130;DHT22;6128;59.340;18.040;2024-01-15T09:02:47;-4.80;99.90
12130;DHT22;6128;59.340;18.040;2024-01-15T09:05:15;-4.70;99.90
12130;DHT22;6128;59.340;18.040;2024-01-15T09:07:42;-4.70;99.90
12130;DHT22;6128;59.340;18.040;2024-01-15T09:10:11;-4.70;99.90
12130;DHT22;6128;59.340;18.040;2024-01-15T09:12:39;-4.80;99.90
12130;DHT22;6128;59.340;18.040;2024-01-15T09:15:07;-4.80;99.90
12130;DHT22;6128;59.340;18.040;2024-01-15T09:17:35;-4.80;99.90
12130;DHT22;6128;59.340;18.040;2024-01-15T09:20:02;-4.80;99.90
12130;DHT22;6128;59.340;18.040;2024-01-15T09:22:31;-4.80;99.90
12130;DHT22;6128;59.340;18.040;2024-01-15T09:24:58;-4.80;99.90
12130;DHT22;6128;59.340;18.040;2024-01-15T09:27:25;-4.80;99.90
12130;DHT22;6128;59.340;18.040;2024-01-15T09:29:53;-4.80;99.90
12130;DHT22;6128;59.340;18.040;2024-01-15T09:32:21;-4.80;99.90
12130;DHT22;6128;59.340;18.040;2024-01-15T09:34:48;-4.80;99.90
12130;DHT22;6128;59.340;18.040;2024-01-15T09:37:16;-4.80;99.90
12130;DHT22;6128;59.340;18.040;2024-01-15T09:39:43;-4.80;99.90
12130;DHT22;6128;59.340;18.040;2024-01-15T09:42:11;-4.80;99.90
12130;DHT22;6128;59.340;18.040;2024-01-15T09:44:38;-4.80;99.90
12130;DHT22;6128;59.340;18.040;2024-01-15T09:47:07;-4.80;99.90
12130;DHT22;6128;59.340;18.040;2024-01-15T09:49:36;-4.90;99.90
12130;DHT22;6128;59.340;18.040;2024-01-15T09:52:05;-4.90;99.90
12130;DHT22;6128;59.340;18.040;2024-01-15T09:54:33;-4.90;99.90
12130;DHT22;6128;59.340;18.040;2024-01-15T09:57:00;-4.80;99.90
12130;DHT22;6128;59.340;18.040;2024-01-15T09:59:28;-4.80;99.90
12130;DHT22;6128;59.340;18.040;2024-01-15T10:01:57;-4.80;99.90
12130;DHT22;6128;59.340;18.040;2024-01-15T10:04:25;-4.70;99.90
12130;DHT22;6128;59.340;18.040;2024-01-15T10:06:54;-4.70;99.90
12130;DHT22;6128;59.340;18.040;2024-01-15T10:09:23;-4.70;99.90
12130;DHT22;6128;59.340;18.040;2024-01-15T10:11:50;-4.70;99.90
12130;DHT22;6128;59.340;18.040;2024-01-15T10:14:17;-4.70;99.90
12130;DHT22;6128;59.340;18.040;2024-01-15T10:16:44;-4.70;99.90
12130;DHT22;6128;59.340;18.040;2024-01-15T10:19:11;-4.70;99.90
12130;DHT22;6128;59.340;18.040;2024-01-15T10:21:38;-4.70;99.90
12130;DHT22;6128;59.340;18.040;2024-01-15T10:24:07;-4.70;99.90
12130;DHT22;6128;59.340;18.040;2024-01-15T10:26:34;-4.80;99.90
12130;DHT22;6128;59.340;18.040;2024-01-15T10:29:01;-4.80;99.90
12130;DHT22;6128;59.340;18.040;2024-01-15T10:31:28;-4.80;99.90
12130;DHT22;6128;59.340;18.040;2024-01-15T10:34:10;-4.70;99.90
12130;DHT22;6128;59.340;18.040;2024-01-15T10:36:39;-4.70;99.90
12130;DHT22;6128;59.340;18.040;2024-01-15T10:39:08;-4.70;99.90
12130;DHT22;6128;59.340;18.040;2024-01-15T10:41:36;-4.60;99.90
12130;DHT22;6128;59.340;18.040;2024-01-15T10:44:03;-4.60;99.90
12130;DHT22;6128;59.340;18.040;2024-01-15T10:46:31;-4.60;99.90
12130;DHT22;6128;59.340;18.040;2024-01-15T10:48:58;-4.60;99.90
12130;DHT22;6128;59.340;18.040;2024-01-15T10:51:25;-4.60;99.90
12130;DHT22;6128;59.340;18.040;2024-01-15T10:53:53;-4.60;99.90
12130;DHT22;6128;59.340;18.040;2024-01-15T10:56:23;-4.70;99.90
12130;DHT22;6128;59.340;18.040;2024-01-15T10:58:52;-4.70;99.90
12130;DHT22;6128;59.340;18.040;2024-01-15T11:01:21;-4.70;99.90
12130;DHT22;6128;59.340;18.040;2024-01-15T11:03:48;-4.70;99.90
12130;DHT22;6128;59.340;18.040;2024-01-15T11:06:16;-4.70;99.90
12130;DHT22;6128;59.340;18.040;2024-01-15T11:08:45;-4.60;99.90
12130;DHT22;6128;59.340;18.040;2024-01-15T11:11:13;-4.60;99.90
12130;DHT22;6128;59.340;18.040;2024-01-15T11:13:42;-4.70;99.90
12130;DHT22;6128;59.340;18.040;2024-01-15T11:16:10;-4.60;99.90
12130;DHT22;6128;59.340;18.040;2024-01-15T11:18:41;-4.60;99.90
12130;DHT22;6128;59.340;18.040;2024-01-15T11:21:24;-4.60;99.90
12130;DHT22;6128;59.340;18.040;2024-01-15T11:23:53;-4.60;99.90
12130;DHT22;6128;59.340;18.040;2024-01-15T11:26:29;-4.60;99.90
12130;DHT22;6128;59.340;18.040;2024-01-15T11:28:59;-4.60;99.90
12130;DHT22;6128;59.340;18.040;2024-01-15T11:31:28;-4.60;99.90
12130;DHT22;6128;59.340;18.040;2024-01-15T11:33:55;-4.60;99.90
12130;DHT22;6128;59.340;18.040;2024-01-15T11:36:35;-4.70;99.90
12130;DHT22;6128;59.340;18.040;2024-01-15T11:39:41;-4.70;99.90
12130;DHT22;6128;59.340;18.040;2024-01-15T11:42:10;-4.60;99.90
12130;DHT22;6128;59.340;18.040;2024-01-15T11:44:39;-4.70;99.90
12130;DHT22;6128;59.340;18.040;2024-01-15T11:47:07;-4.70;99.90
12130;DHT22;6128;59.340;18.040;2024-01-15T11:49:59;-4.80;99.90
12130;DHT22;6128;59.340;18.040;2024-01-15T11:52:32;-4.80;99.90
12130;DHT22;6128;59.340;18.040;2024-01-15T11:55:05;-4.80;99.90
12130;DHT22;6128;59.340;18.040;2024-01-15T11:57:41;-4.80;99.90
12130;DHT22;6128;59.340;18.040;2024-01-15T12:00:12;-4.80;99.90
12130;DHT22;6128;59.340;18.040;2024-01-15T12:02:41;-4.70;99.90
12130;DHT22;6128;59.340;18.040;2024-01-15T12:05:09;-4.80;99.90
12130;DHT22;6128;59.340;18.040;2024-01-15T12:07:38;-4.80;99.90
12130;DHT22;6128;59.340;18.040;2024-01-15T12:10:09;-4.80;99.90
12130;DHT22;6128;59.340;18.040;2024-01-15T12:12:54;-4.90;99.90
12130;DHT22;6128;59.340;18.040;2024-01-15T12:15:27;-4.80;99.90
12130;DHT22;6128;59.340;18.040;2024-01-15T12:17:55;-4.80;99.90
12130;DHT22;6128;59.340;18.040;2024-01-15T12:20:23;-4.80;99.90
12130;DHT22;6128;59.340;18.040;2024-01-15T12:22:50;-4.80;99.90
12130;DHT22;6128;59.340;18.040;2024-01-15T12:25:18;-4.80;99.90
12130;DHT22;6128;59.340;18.040;2024-01-15T12:27:45;-4.80;99.90
12130;DHT22;6128;59.340;18.040;2024-01-15T12:30:13;-4.80;99.90
12130;DHT22;6128;59.340;18.040;2024-01-15T12:32:42;-4.90;99.90
12130;DHT22;6128;59.340;18.040;2024-01-15T12:35:10;-4.90;99.90
12130;DHT22;6128;59.340;18.040;2024-01-15T12:37:39;-4.90;99.90
12130;DHT22;6128;59.340;18.040;2024-01-15T12:40:08;-4.80;99.90
12130;DHT22;6128;59.340;18.040;2024-01-15T12:42:36;-4.80;99.90
12130;DHT22;6128;59.340;18.040;2024-01-15T12:45:06;-4.80;99.90
12130;DHT22;6128;59.340;18.040;2024-01-15T12:47:34;-4.80;99.90
12130;DHT22;6128;59.340;18.040;2024-01-15T12:50:06;-4.80;99.90
12130;DHT22;6128;59.340;18.040;2024-01-15T12:52:33;-4.80;99.90
12130;DHT22;6128;59.340;18.040;2024-01-15T12:55:04;-4.80;99.90
12130;DHT22;6128;59.340;18.040;2024-01-15T12:57:31;-4.70;99.90
12130;DHT22;6128;59.340;18.040;2024-01-15T12:59:59;-4.70;99.90
12130;DHT22;6128;59.340;18.040;2024-01-15T13:02:27;-4.80;99.90
12130;DHT22;6128;59.340;18.040;2024-01-15T13:04:54;-4.80;99.90
12130;DHT22;6128;59.340;18.040;2024-01-15T13:07:23;-4.70;99.90
12130;DHT22;6128;59.340;18.040;2024-01-15T13:09:50;-4.80;99.90
12130;DHT22;6128;59.340;18.040;2024-01-15T13:12:19;-4.80;99.90
12130;DHT22;6128;59.340;18.040;2024-01-15T13:14:46;-4.80;99.90
12130;DHT22;6128;59.340;18.040;2024-01-15T13:17:14;-4.80;99.90
12130;DHT22;6128;59.340;18.040;2024-01-15T13:19:41;-4.80;99.90
12130;DHT22;6128;59.340;18.040;2024-01-15T13:22:09;-4.70;99.90
12130;DHT22;6128;59.340;18.040;2024-01-15T13:24:40;-4.70;99.90
12130;DHT22;6128;59.340;18.040;2024-01-15T13:27:08;-4.80;99.90
12130;DHT22;6128;59.340;18.040;2024-01-15T13:29:36;-4.90;99.90
12130;DHT22;6128;59.340;18.040;2024-01-15T13:32:04;-4.80;99.90
12130;DHT22;6128;59.340;18.040;2024-01-15T13:34:31;-4.80;99.90
12130;DHT22;6128;59.340;18.040;2024-01-15T13:37:00;-4.80;99.90
12130;DHT22;6128;59.340;18.040;2024-01-15T13:39:27;-4.80;99.90
12130;DHT22;6128;59.340;18.040;2024-01-15T13:42:00;-4.80;99.90
12130;DHT22;6128;59.340;18.040;2024-01-15T13:44:27;-4.90;99.90
12130;DHT22;6128;59.340;18.040;2024-01-15T13:46:54;-4.90;99.90
12130;DHT22;6128;59.340;18.040;2024-01-15T13:49:22;-4.90;99.90
12130;DHT22;6128;59.340;18.040;2024-01-15T13:51:50;-4.90;99.90
12130;DHT22;6128;59.340;18.040;2024-01-15T13:54:17;-5.00;99.90
12130;DHT22;6128;59.340;18.040;2024-01-15T13:56:46;-5.00;99.90
12130;DHT22;6128;59.340;18.040;2024-01-15T13:59:15;-5.10;99.90
12130;DHT22;6128;59.340;18.040;2024-01-15T14:01:42;-5.00;99.90
12130;DHT22;6128;59.340;18.040;2024-01-15T14:04:10;-5.10;99.90
12130;DHT22;6128;59.340;18.040;2024-01-15T14:06:37;-5.10;99.90
12130;DHT22;6128;59.340;18.040;2024-01-15T14:09:04;-5.00;99.90
12130;DHT22;6128;59.340;18.040;2024-01-15T14:11:35;-5.10;99.90
12130;DHT22;6128;59.340;18.040;2024-01-15T14:14:02;-5.00;99.90
12130;DHT22;6128;59.340;18.040;2024-01-15T14:16:31;-5.10;99.90
12130;DHT22;6128;59.340;18.040;2024-01-15T14:18:58;-5.10;99.90
12130;DHT22;6128;59.340;18.040;2024-01-15T14:21:28;-5.10;99.90
12130;DHT22;6128;59.340;18.040;2024-01-15T14:23:55;-5.10;99.90
12130;DHT22;6128;59.340;18.040;2024-01-15T14:26:22;-5.20;99.90
12130;DHT22;6128;59.340;18.040;2024-01-15T14:28:49;-5.20;99.90
12130;DHT22;6128;59.340;18.040;2024-01-15T14:31:16;-5.20;99.90
12130;DHT22;6128;59.340;18.040;2024-01-15T14:33:46;-5.20;99.90
12130;DHT22;6128;59.340;18.040;2024-01-15T14:36:17;-5.10;99.90
12130;DHT22;6128;59.340;18.040;2024-01-15T14:38:48;-5.10;99.90
12130;DHT22;6128;59.340;18.040;2024-01-15T14:41:18;-5.10;99.90
12130;DHT22;6128;59.340;18.040;2024-01-15T14:43:50;-5.10;99.90
12130;DHT22;6128;59.340;18.040;2024-01-15T14:46:17;-5.10;99.90
12130;DHT22;6128;59.340;18.040;2024-01-15T14:48:46;-5.00;99.90
12130;DHT22;6128;59.340;18.040;2024-01-15T14:51:27;-5.00;99.90
12130;DHT22;6128;59.340;18.040;2024-01-15T14:53:54;-5.00;99.90
12130;DHT22;6128;59.340;18.040;2024-01-15T14:56:21;-5.00;99.90
12130;DHT22;6128;59.340;18.040;2024-01-15T14:58:48;-5.00;99.90
12130;DHT22;6128;59.340;18.040;2024-01-15T15:01:15;-5.00;99.90
12130;DHT22;6128;59.340;18.040;2024-01-15T15:03:43;-4.90;99.90
12130;DHT22;6128;59.340;18.040;2024-01-15T15:06:12;-5.00;99.90
12130;DHT22;6128;59.340;18.040;2024-01-15T15:08:39;-5.00;99.90
12130;DHT22;6128;59.340;18.040;2024-01-15T15:11:06;-4.90;99.90
12130;DHT22;6128;59.340;18.040;2024-01-15T15:13:33;-5.00;99.90
12130;DHT22;6128;59.340;18.040;2024-01-15T15:16:01;-5.00;99.90
12130;DHT22;6128;59.340;18.040;2024-01-15T15:18:29;-5.00;99.90
12130;DHT22;6128;59.340;18.040;2024-01-15T15:20:56;-5.00;99.90
12130;DHT22;6128;59.340;18.040;2024-01-15T15:23:25;-5.00;99.90
12130;DHT22;6128;59.340;18.040;2024-01-15T15:25:52;-5.10;99.90
12130;DHT22;6128;59.340;18.040;2024-01-15T15:28:21;-5.00;99.90
12130;DHT22;6128;59.340;18.040;2024-01-15T15:30:48;-5.00;99.90
12130;DHT22;6128;59.340;18.040;2024-01-15T15:33:15;-5.10;99.90
12130;DHT22;6128;59.340;18.040;2024-01-15T15:35:44;-5.10;99.90